aviador You're here:

KRHI Decoded Metar

RHINELANDER in WI, USA
Report Time2018-02-25 11:31:00
UTC Time2018-02-25 11:38:45
Flight Rules mvfr MVFR
Wind260° at 17 Gusting to 28 kt
W.Decomp.*RWY 27: 16.9 kt HW 2.1 kt LCW
RWY 33: 6.6 kt HW 15.6 kt LCW
W.Rank260° ranks 3
Current wind is above 260° avg. (8.0)
Visibility4828 m
Phenomena:Light Snow
Mist
Clouds:Overcast 014 Hf
Expected CloudBase > 800 ft AGL from Temp-Dew spread
Ceiling1,400 ft
Temp-3°C (ISA -15)
Dew Point-5°C (86% RH)
AAT-11.7°C
QNH993 hPa
Density Alt525 ft
Elevation1,591 ft
Report Wrong Elevation
Raw Report
KRHI 251131Z AUTO 26017G28KT 3SM -SN BR OVC014 M03/M05 A2933 RMK
AO2 PK WND 26034/1111 P0000 T10331050=

Extra information for KRHI:More info

Metar Taf Metar & Taf Last 4 Metars F.Rules Stats Wind Profile Meteogram Temp Stats Airport Information Weather charts Add Link Nearby VenuesMetar ALERT Operation Metar Decoded Social comments

AIRNAV info for KRHI